sensor_id;sensor_type;location;lat;lon;timestamp;P1;durP1;ratioP1;P2;durP2;ratioP2
7033;SDS011;3558;53.176;10.412;2024-01-16T03:45:58;2.20;;;1.67;;
7033;SDS011;3558;53.176;10.412;2024-01-16T03:48:24;2.07;;;1.50;;
7033;SDS011;3558;53.176;10.412;2024-01-16T03:50:49;1.83;;;1.37;;
7033;SDS011;3558;53.176;10.412;2024-01-16T03:53:15;1.80;;;1.47;;
7033;SDS011;3558;53.176;10.412;2024-01-16T03:55:40;1.50;;;1.40;;
7033;SDS011;3558;53.176;10.412;2024-01-16T03:58:06;2.10;;;1.70;;
7033;SDS011;3558;53.176;10.412;2024-01-16T04:00:32;2.67;;;1.53;;
7033;SDS011;3558;53.176;10.412;2024-01-16T04:02:58;1.50;;;1.40;;
7033;SDS011;3558;53.176;10.412;2024-01-16T04:05:23;1.90;;;1.50;;
7033;SDS011;3558;53.176;10.412;2024-01-16T04:07:49;1.73;;;1.50;;
7033;SDS011;3558;53.176;10.412;2024-01-16T04:10:14;1.97;;;1.77;;
7033;SDS011;3558;53.176;10.412;2024-01-16T04:12:40;2.05;;;1.60;;
7033;SDS011;3558;53.176;10.412;2024-01-16T04:15:05;1.70;;;1.60;;
7033;SDS011;3558;53.176;10.412;2024-01-16T04:17:31;2.10;;;1.70;;
7033;SDS011;3558;53.176;10.412;2024-01-16T04:19:57;2.50;;;1.98;;
7033;SDS011;3558;53.176;10.412;2024-01-16T04:22:22;2.83;;;1.80;;
7033;SDS011;3558;53.176;10.412;2024-01-16T04:24:48;2.28;;;1.80;;
7033;SDS011;3558;53.176;10.412;2024-01-16T04:27:13;2.35;;;1.85;;
7033;SDS011;3558;53.176;10.412;2024-01-16T04:29:39;1.70;;;1.60;;
7033;SDS011;3558;53.176;10.412;2024-01-16T04:32:05;2.10;;;1.87;;
7033;SDS011;3558;53.176;10.412;2024-01-16T04:34:30;2.70;;;1.70;;
7033;SDS011;3558;53.176;10.412;2024-01-16T04:36:56;2.20;;;1.77;;
7033;SDS011;3558;53.176;10.412;2024-01-16T04:39:21;2.42;;;1.80;;
7033;SDS011;3558;53.176;10.412;2024-01-16T04:41:47;1.75;;;1.60;;
7033;SDS011;3558;53.176;10.412;2024-01-16T04:44:14;2.00;;;1.80;;
7033;SDS011;3558;53.176;10.412;2024-01-16T04:46:39;2.37;;;1.57;;
7033;SDS011;3558;53.176;10.412;2024-01-16T04:49:05;2.10;;;1.67;;
7033;SDS011;3558;53.176;10.412;2024-01-16T04:51:30;2.37;;;1.53;;
7033;SDS011;3558;53.176;10.412;2024-01-16T04:53:56;1.70;;;1.60;;
7033;SDS011;3558;53.176;10.412;2024-01-16T04:56:21;2.03;;;1.55;;
7033;SDS011;3558;53.176;10.412;2024-01-16T04:58:46;2.00;;;1.70;;
7033;SDS011;3558;53.176;10.412;2024-01-16T05:01:12;2.90;;;1.60;;
7033;SDS011;3558;53.176;10.412;2024-01-16T05:03:38;1.92;;;1.60;;
7033;SDS011;3558;53.176;10.412;2024-01-16T05:06:03;1.60;;;1.40;;
7033;SDS011;3558;53.176;10.412;2024-01-16T05:08:29;2.30;;;1.70;;
7033;SDS011;3558;53.176;10.412;2024-01-16T05:10:55;1.70;;;1.30;;
7033;SDS011;3558;53.176;10.412;2024-01-16T05:13:21;2.33;;;1.40;;
7033;SDS011;3558;53.176;10.412;2024-01-16T05:15:47;2.47;;;1.43;;
7033;SDS011;3558;53.176;10.412;2024-01-16T05:18:12;1.50;;;1.30;;
7033;SDS011;3558;53.176;10.412;2024-01-16T05:20:38;1.40;;;1.20;;
7033;SDS011;3558;53.176;10.412;2024-01-16T05:23:03;1.95;;;1.30;;
7033;SDS011;3558;53.176;10.412;2024-01-16T05:25:29;2.10;;;1.20;;
7033;SDS011;3558;53.176;10.412;2024-01-16T05:27:55;1.65;;;1.20;;
7033;SDS011;3558;53.176;10.412;2024-01-16T05:30:20;2.07;;;1.30;;
7033;SDS011;3558;53.176;10.412;2024-01-16T05:32:46;1.70;;;1.07;;
7033;SDS011;3558;53.176;10.412;2024-01-16T05:35:11;1.30;;;0.90;;
7033;SDS011;3558;53.176;10.412;2024-01-16T05:37:37;1.42;;;0.80;;
7033;SDS011;3558;53.176;10.412;2024-01-16T05:40:02;1.70;;;1.10;;
7033;SDS011;3558;53.176;10.412;2024-01-16T05:42:29;1.50;;;1.00;;
7033;SDS011;3558;53.176;10.412;2024-01-16T05:44:54;1.13;;;0.87;;
7033;SDS011;3558;53.176;10.412;2024-01-16T05:47:20;1.43;;;0.80;;
7033;SDS011;3558;53.176;10.412;2024-01-16T05:49:49;1.85;;;1.00;;
7033;SDS011;3558;53.176;10.412;2024-01-16T05:52:14;1.00;;;0.80;;
7033;SDS011;3558;53.176;10.412;2024-01-16T05:54:40;1.40;;;0.80;;
7033;SDS011;3558;53.176;10.412;2024-01-16T05:57:05;1.30;;;0.70;;
7033;SDS011;3558;53.176;10.412;2024-01-16T05:59:30;1.17;;;0.70;;
7033;SDS011;3558;53.176;10.412;2024-01-16T06:01:56;1.03;;;0.90;;
7033;SDS011;3558;53.176;10.412;2024-01-16T06:04:21;1.80;;;0.90;;
7033;SDS011;3558;53.176;10.412;2024-01-16T06:06:47;1.63;;;0.77;;
7033;SDS011;3558;53.176;10.412;2024-01-16T06:09:12;1.07;;;0.80;;
7033;SDS011;3558;53.176;10.412;2024-01-16T06:11:41;1.92;;;0.98;;
7033;SDS011;3558;53.176;10.412;2024-01-16T06:14:07;1.30;;;0.97;;
7033;SDS011;3558;53.176;10.412;2024-01-16T06:16:33;2.47;;;1.10;;
7033;SDS011;3558;53.176;10.412;2024-01-16T06:18:58;1.90;;;1.10;;
7033;SDS011;3558;53.176;10.412;2024-01-16T06:21:24;1.57;;;1.10;;
7033;SDS011;3558;53.176;10.412;2024-01-16T06:23:49;1.90;;;1.23;;
7033;SDS011;3558;53.176;10.412;2024-01-16T06:26:15;2.07;;;1.67;;
7033;SDS011;3558;53.176;10.412;2024-01-16T06:28:40;2.38;;;1.45;;
7033;SDS011;3558;53.176;10.412;2024-01-16T06:31:07;3.35;;;2.00;;
7033;SDS011;3558;53.176;10.412;2024-01-16T06:33:33;2.83;;;1.80;;
7033;SDS011;3558;53.176;10.412;2024-01-16T06:35:59;2.45;;;1.52;;
7033;SDS011;3558;53.176;10.412;2024-01-16T06:38:25;3.20;;;2.10;;
7033;SDS011;3558;53.176;10.412;2024-01-16T06:40:50;3.03;;;2.03;;
7033;SDS011;3558;53.176;10.412;2024-01-16T06:43:16;3.17;;;2.00;;
7033;SDS011;3558;53.176;10.412;2024-01-16T06:45:43;2.60;;;1.77;;
7033;SDS011;3558;53.176;10.412;2024-01-16T06:48:09;3.00;;;2.08;;
7033;SDS011;3558;53.176;10.412;2024-01-16T06:50:34;2.60;;;1.90;;
7033;SDS011;3558;53.176;10.412;2024-01-16T06:53:00;2.90;;;2.10;;
7033;SDS011;3558;53.176;10.412;2024-01-16T06:55:26;3.97;;;2.40;;
7033;SDS011;3558;53.176;10.412;2024-01-16T06:57:51;2.80;;;2.03;;
7033;SDS011;3558;53.176;10.412;2024-01-16T07:00:17;3.83;;;1.90;;
7033;SDS011;3558;53.176;10.412;2024-01-16T07:02:42;3.30;;;1.92;;
7033;SDS011;3558;53.176;10.412;2024-01-16T07:05:08;2.97;;;2.00;;
7033;SDS011;3558;53.176;10.412;2024-01-16T07:07:34;3.85;;;1.92;;
7033;SDS011;3558;53.176;10.412;2024-01-16T07:10:00;4.27;;;2.13;;
7033;SDS011;3558;53.176;10.412;2024-01-16T07:12:25;5.03;;;2.20;;
7033;SDS011;3558;53.176;10.412;2024-01-16T07:14:51;2.77;;;1.90;;
7033;SDS011;3558;53.176;10.412;2024-01-16T07:17:16;3.43;;;1.83;;
7033;SDS011;3558;53.176;10.412;2024-01-16T07:19:42;3.97;;;2.10;;
7033;SDS011;3558;53.176;10.412;2024-01-16T07:22:07;3.75;;;1.88;;
7033;SDS011;3558;53.176;10.412;2024-01-16T07:24:32;2.63;;;1.73;;
7033;SDS011;3558;53.176;10.412;2024-01-16T07:26:58;3.37;;;1.90;;
7033;SDS011;3558;53.176;10.412;2024-01-16T07:29:23;3.07;;;1.97;;
7033;SDS011;3558;53.176;10.412;2024-01-16T07:31:49;4.03;;;1.80;;
7033;SDS011;3558;53.176;10.412;2024-01-16T07:34:14;3.77;;;1.90;;
7033;SDS011;3558;53.176;10.412;2024-01-16T07:36:45;3.73;;;1.70;;
7033;SDS011;3558;53.176;10.412;2024-01-16T07:39:10;4.85;;;1.92;;
7033;SDS011;3558;53.176;10.412;2024-01-16T07:41:36;3.83;;;1.80;;
7033;SDS011;3558;53.176;10.412;2024-01-16T07:44:01;3.37;;;1.60;;
7033;SDS011;3558;53.176;10.412;2024-01-16T07:46:27;3.10;;;1.70;;
7033;SDS011;3558;53.176;10.412;2024-01-16T07:48:53;2.83;;;1.58;;
7033;SDS011;3558;53.176;10.412;2024-01-16T07:51:19;3.03;;;1.50;;
7033;SDS011;3558;53.176;10.412;2024-01-16T07:53:44;3.42;;;1.85;;
7033;SDS011;3558;53.176;10.412;2024-01-16T07:56:10;3.65;;;1.88;;
7033;SDS011;3558;53.176;10.412;2024-01-16T07:58:36;3.47;;;1.60;;
7033;SDS011;3558;53.176;10.412;2024-01-16T08:01:02;2.93;;;1.43;;
7033;SDS011;3558;53.176;10.412;2024-01-16T08:03:28;3.45;;;1.33;;
7033;SDS011;3558;53.176;10.412;2024-01-16T08:05:53;3.23;;;1.30;;
7033;SDS011;3558;53.176;10.412;2024-01-16T08:08:19;4.00;;;1.47;;
7033;SDS011;3558;53.176;10.412;2024-01-16T08:10:44;3.83;;;1.30;;
7033;SDS011;3558;53.176;10.412;2024-01-16T08:13:10;2.80;;;1.20;;
7033;SDS011;3558;53.176;10.412;2024-01-16T08:15:35;3.70;;;1.23;;
7033;SDS011;3558;53.176;10.412;2024-01-16T08:18:02;3.38;;;1.38;;
7033;SDS011;3558;53.176;10.412;2024-01-16T08:20:27;2.85;;;1.33;;
7033;SDS011;3558;53.176;10.412;2024-01-16T08:22:53;3.28;;;1.20;;
7033;SDS011;3558;53.176;10.412;2024-01-16T08:25:18;3.20;;;1.30;;
7033;SDS011;3558;53.176;10.412;2024-01-16T08:27:44;3.40;;;1.13;;
7033;SDS011;3558;53.176;10.412;2024-01-16T08:30:09;3.37;;;1.13;;
7033;SDS011;3558;53.176;10.412;2024-01-16T08:32:37;3.65;;;1.10;;
7033;SDS011;3558;53.176;10.412;2024-01-16T08:35:02;3.33;;;1.00;;
7033;SDS011;3558;53.176;10.412;2024-01-16T08:37:30;5.72;;;1.30;;
7033;SDS011;3558;53.176;10.412;2024-01-16T08:39:56;2.97;;;1.10;;
7033;SDS011;3558;53.176;10.412;2024-01-16T08:42:22;3.80;;;1.10;;
7033;SDS011;3558;53.176;10.412;2024-01-16T08:44:47;2.20;;;0.93;;
7033;SDS011;3558;53.176;10.412;2024-01-16T08:47:13;1.97;;;0.83;;
7033;SDS011;3558;53.176;10.412;2024-01-16T08:49:38;3.73;;;1.10;;
7033;SDS011;3558;53.176;10.412;2024-01-16T08:52:04;3.15;;;1.00;;
7033;SDS011;3558;53.176;10.412;2024-01-16T08:54:30;3.92;;;1.20;;
7033;SDS011;3558;53.176;10.412;2024-01-16T08:56:56;2.67;;;1.08;;
7033;SDS011;3558;53.176;10.412;2024-01-16T08:59:21;2.80;;;0.98;;
7033;SDS011;3558;53.176;10.412;2024-01-16T09:01:47;2.53;;;0.95;;
7033;SDS011;3558;53.176;10.412;2024-01-16T09:04:13;3.20;;;1.10;;
7033;SDS011;3558;53.176;10.412;2024-01-16T09:06:38;2.07;;;0.90;;
7033;SDS011;3558;53.176;10.412;2024-01-16T09:09:04;4.15;;;1.05;;
7033;SDS011;3558;53.176;10.412;2024-01-16T09:11:30;3.63;;;1.23;;
7033;SDS011;3558;53.176;10.412;2024-01-16T09:13:56;4.30;;;1.30;;
7033;SDS011;3558;53.176;10.412;2024-01-16T09:16:22;3.30;;;1.00;;
7033;SDS011;3558;53.176;10.412;2024-01-16T09:18:47;3.40;;;1.30;;
7033;SDS011;3558;53.176;10.412;2024-01-16T09:21:14;2.83;;;1.38;;
7033;SDS011;3558;53.176;10.412;2024-01-16T09:23:39;2.60;;;1.30;;
7033;SDS011;3558;53.176;10.412;2024-01-16T09:26:05;3.87;;;1.20;;
7033;SDS011;3558;53.176;10.412;2024-01-16T09:28:30;3.37;;;1.20;;
7033;SDS011;3558;53.176;10.412;2024-01-16T09:30:56;3.72;;;1.20;;
7033;SDS011;3558;53.176;10.412;2024-01-16T09:33:22;3.35;;;1.25;;
7033;SDS011;3558;53.176;10.412;2024-01-16T09:35:48;4.38;;;1.20;;
7033;SDS011;3558;53.176;10.412;2024-01-16T09:38:14;4.18;;;1.30;;
7033;SDS011;3558;53.176;10.412;2024-01-16T09:40:39;4.20;;;1.30;;
7033;SDS011;3558;53.176;10.412;2024-01-16T09:43:05;3.95;;;1.20;;
7033;SDS011;3558;53.176;10.412;2024-01-16T09:45:33;3.47;;;1.50;;
7033;SDS011;3558;53.176;10.412;2024-01-16T09:48:02;2.30;;;1.20;;
7033;SDS011;3558;53.176;10.412;2024-01-16T09:50:29;3.35;;;1.48;;
7033;SDS011;3558;53.176;10.412;2024-01-16T09:52:55;4.27;;;1.37;;
7033;SDS011;3558;53.176;10.412;2024-01-16T09:55:20;3.20;;;1.33;;
7033;SDS011;3558;53.176;10.412;2024-01-16T09:57:46;4.03;;;1.40;;
7033;SDS011;3558;53.176;10.412;2024-01-16T10:00:18;3.33;;;1.45;;
7033;SDS011;3558;53.176;10.412;2024-01-16T10:02:44;3.03;;;1.35;;
7033;SDS011;3558;53.176;10.412;2024-01-16T10:05:11;4.57;;;1.55;;
7033;SDS011;3558;53.176;10.412;2024-01-16T10:07:37;4.00;;;1.38;;
7033;SDS011;3558;53.176;10.412;2024-01-16T10:10:03;3.20;;;1.20;;
7033;SDS011;3558;53.176;10.412;2024-01-16T10:12:30;3.28;;;1.30;;
7033;SDS011;3558;53.176;10.412;2024-01-16T10:14:56;4.22;;;1.42;;
7033;SDS011;3558;53.176;10.412;2024-01-16T10:17:21;3.10;;;1.25;;
7033;SDS011;3558;53.176;10.412;2024-01-16T10:19:49;3.53;;;1.20;;
7033;SDS011;3558;53.176;10.412;2024-01-16T10:22:22;3.55;;;1.38;;
7033;SDS011;3558;53.176;10.412;2024-01-16T10:24:50;3.03;;;1.35;;
7033;SDS011;3558;53.176;10.412;2024-01-16T10:27:28;4.20;;;1.50;;
7033;SDS011;3558;53.176;10.412;2024-01-16T10:29:56;3.22;;;1.40;;
7033;SDS011;3558;53.176;10.412;2024-01-16T10:32:33;3.05;;;1.38;;
7033;SDS011;3558;53.176;10.412;2024-01-16T10:35:09;3.93;;;1.70;;
7033;SDS011;3558;53.176;10.412;2024-01-16T10:37:51;3.57;;;1.50;;
7033;SDS011;3558;53.176;10.412;2024-01-16T10:40:18;3.10;;;1.20;;
7033;SDS011;3558;53.176;10.412;2024-01-16T10:42:46;4.40;;;1.27;;
7033;SDS011;3558;53.176;10.412;2024-01-16T10:45:21;2.73;;;1.03;;
7033;SDS011;3558;53.176;10.412;2024-01-16T10:47:47;4.65;;;1.40;;
7033;SDS011;3558;53.176;10.412;2024-01-16T10:50:13;3.15;;;1.10;;
7033;SDS011;3558;53.176;10.412;2024-01-16T10:52:48;3.30;;;1.50;;
7033;SDS011;3558;53.176;10.412;2024-01-16T10:55:17;3.60;;;1.20;;
7033;SDS011;3558;53.176;10.412;2024-01-16T10:57:50;3.75;;;1.20;;
7033;SDS011;3558;53.176;10.412;2024-01-16T11:00:20;3.58;;;1.52;;
7033;SDS011;3558;53.176;10.412;2024-01-16T11:02:49;4.68;;;2.45;;
7033;SDS011;3558;53.176;10.412;2024-01-16T11:05:27;6.00;;;3.10;;
7033;SDS011;3558;53.176;10.412;2024-01-16T11:07:55;6.60;;;3.30;;
7033;SDS011;3558;53.176;10.412;2024-01-16T11:10:23;6.72;;;3.10;;
7033;SDS011;3558;53.176;10.412;2024-01-16T11:12:50;7.57;;;3.70;;
7033;SDS011;3558;53.176;10.412;2024-01-16T11:15:17;6.40;;;3.10;;
7033;SDS011;3558;53.176;10.412;2024-01-16T11:17:44;5.93;;;2.80;;
7033;SDS011;3558;53.176;10.412;2024-01-16T11:20:11;6.85;;;2.80;;
7033;SDS011;3558;53.176;10.412;2024-01-16T11:22:39;4.38;;;2.30;;
7033;SDS011;3558;53.176;10.412;2024-01-16T11:25:14;4.82;;;2.40;;
7033;SDS011;3558;53.176;10.412;2024-01-16T11:27:41;5.03;;;2.17;;
7033;SDS011;3558;53.176;10.412;2024-01-16T11:30:08;4.15;;;2.00;;
7033;SDS011;3558;53.176;10.412;2024-01-16T11:32:36;4.63;;;2.08;;
7033;SDS011;3558;53.176;10.412;2024-01-16T11:35:05;4.43;;;2.10;;
7033;SDS011;3558;53.176;10.412;2024-01-16T11:37:34;3.67;;;1.65;;
7033;SDS011;3558;53.176;10.412;2024-01-16T11:42:46;4.03;;;1.50;;
7033;SDS011;3558;53.176;10.412;2024-01-16T11:48:07;3.42;;;1.80;;
7033;SDS011;3558;53.176;10.412;2024-01-16T11:50:34;4.13;;;1.83;;
7033;SDS011;3558;53.176;10.412;2024-01-16T11:53:00;2.80;;;1.50;;
7033;SDS011;3558;53.176;10.412;2024-01-16T11:55:30;3.83;;;1.40;;
7033;SDS011;3558;53.176;10.412;2024-01-16T12:00:40;3.20;;;1.30;;
7033;SDS011;3558;53.176;10.412;2024-01-16T12:03:07;3.50;;;1.40;;
7033;SDS011;3558;53.176;10.412;2024-01-16T12:05:33;2.67;;;1.40;;
7033;SDS011;3558;53.176;10.412;2024-01-16T12:07:59;4.07;;;1.40;;
7033;SDS011;3558;53.176;10.412;2024-01-16T12:10:28;2.75;;;1.30;;
7033;SDS011;3558;53.176;10.412;2024-01-16T12:12:56;3.47;;;1.43;;
7033;SDS011;3558;53.176;10.412;2024-01-16T12:15:23;3.40;;;1.20;;
7033;SDS011;3558;53.176;10.412;2024-01-16T12:20:18;2.95;;;1.33;;
7033;SDS011;3558;53.176;10.412;2024-01-16T12:22:44;2.90;;;1.30;;
7033;SDS011;3558;53.176;10.412;2024-01-16T12:25:09;3.33;;;1.30;;
7033;SDS011;3558;53.176;10.412;2024-01-16T12:27:36;2.72;;;1.25;;
7033;SDS011;3558;53.176;10.412;2024-01-16T12:30:06;3.93;;;1.37;;
7033;SDS011;3558;53.176;10.412;2024-01-16T12:32:32;3.53;;;1.35;;
7033;SDS011;3558;53.176;10.412;2024-01-16T12:34:58;2.60;;;1.40;;
7033;SDS011;3558;53.176;10.412;2024-01-16T12:37:23;2.80;;;1.40;;
7033;SDS011;3558;53.176;10.412;2024-01-16T12:39:49;3.30;;;1.40;;
7033;SDS011;3558;53.176;10.412;2024-01-16T12:42:16;4.25;;;1.45;;
7033;SDS011;3558;53.176;10.412;2024-01-16T12:44:42;3.47;;;1.50;;
7033;SDS011;3558;53.176;10.412;2024-01-16T12:47:08;4.60;;;1.70;;
7033;SDS011;3558;53.176;10.412;2024-01-16T12:49:39;3.78;;;1.50;;
7033;SDS011;3558;53.176;10.412;2024-01-16T12:52:20;4.82;;;1.60;;
7033;SDS011;3558;53.176;10.412;2024-01-16T12:54:57;3.83;;;1.60;;
7033;SDS011;3558;53.176;10.412;2024-01-16T12:57:27;2.70;;;1.40;;
7033;SDS011;3558;53.176;10.412;2024-01-16T12:59:54;2.80;;;1.40;;
7033;SDS011;3558;53.176;10.412;2024-01-16T13:02:22;5.28;;;1.60;;
7033;SDS011;3558;53.176;10.412;2024-01-16T13:04:56;3.00;;;1.47;;
7033;SDS011;3558;53.176;10.412;2024-01-16T13:07:25;2.95;;;1.40;;
7033;SDS011;3558;53.176;10.412;2024-01-16T13:10:05;3.78;;;1.48;;
7033;SDS011;3558;53.176;10.412;2024-01-16T13:12:32;3.88;;;2.00;;
7033;SDS011;3558;53.176;10.412;2024-01-16T13:14:58;3.47;;;1.60;;
7033;SDS011;3558;53.176;10.412;2024-01-16T13:17:24;2.97;;;1.30;;
7033;SDS011;3558;53.176;10.412;2024-01-16T13:19:49;2.95;;;1.50;;
7033;SDS011;3558;53.176;10.412;2024-01-16T13:22:15;3.10;;;1.52;;
7033;SDS011;3558;53.176;10.412;2024-01-16T13:24:41;5.23;;;1.60;;
7033;SDS011;3558;53.176;10.412;2024-01-16T13:27:07;4.15;;;1.70;;
7033;SDS011;3558;53.176;10.412;2024-01-16T13:29:34;3.45;;;1.63;;
7033;SDS011;3558;53.176;10.412;2024-01-16T13:32:03;4.38;;;1.90;;
7033;SDS011;3558;53.176;10.412;2024-01-16T13:34:29;3.50;;;1.50;;
7033;SDS011;3558;53.176;10.412;2024-01-16T13:36:55;2.45;;;1.35;;
7033;SDS011;3558;53.176;10.412;2024-01-16T13:39:24;3.67;;;1.38;;
7033;SDS011;3558;53.176;10.412;2024-01-16T13:41:50;3.97;;;1.48;;
7033;SDS011;3558;53.176;10.412;2024-01-16T13:44:16;3.67;;;1.50;;
7033;SDS011;3558;53.176;10.412;2024-01-16T13:46:41;3.53;;;1.40;;
7033;SDS011;3558;53.176;10.412;2024-01-16T13:49:07;3.77;;;1.50;;
7033;SDS011;3558;53.176;10.412;2024-01-16T13:51:32;3.00;;;1.60;;
7033;SDS011;3558;53.176;10.412;2024-01-16T13:53:58;3.50;;;1.40;;
7033;SDS011;3558;53.176;10.412;2024-01-16T13:56:23;3.15;;;1.70;;
7033;SDS011;3558;53.176;10.412;2024-01-16T13:58:49;3.60;;;1.60;;
7033;SDS011;3558;53.176;10.412;2024-01-16T14:01:14;2.95;;;1.33;;
7033;SDS011;3558;53.176;10.412;2024-01-16T14:03:40;3.95;;;1.50;;
7033;SDS011;3558;53.176;10.412;2024-01-16T14:06:08;5.17;;;1.77;;
7033;SDS011;3558;53.176;10.412;2024-01-16T14:08:33;3.80;;;1.70;;
7033;SDS011;3558;53.176;10.412;2024-01-16T14:10:59;3.77;;;1.63;;
7033;SDS011;3558;53.176;10.412;2024-01-16T14:13:24;3.60;;;1.50;;
7033;SDS011;3558;53.176;10.412;2024-01-16T14:15:50;3.35;;;1.50;;
7033;SDS011;3558;53.176;10.412;2024-01-16T14:18:16;3.47;;;1.60;;
7033;SDS011;3558;53.176;10.412;2024-01-16T14:20:41;3.97;;;1.70;;
7033;SDS011;3558;53.176;10.412;2024-01-16T14:23:07;4.03;;;2.00;;
7033;SDS011;3558;53.176;10.412;2024-01-16T14:25:32;2.60;;;1.60;;
7033;SDS011;3558;53.176;10.412;2024-01-16T14:27:59;3.22;;;1.70;;
7033;SDS011;3558;53.176;10.412;2024-01-16T14:30:28;3.03;;;1.60;;
7033;SDS011;3558;53.176;10.412;2024-01-16T14:32:54;3.60;;;1.70;;
7033;SDS011;3558;53.176;10.412;2024-01-16T14:35:23;3.47;;;1.60;;
7033;SDS011;3558;53.176;10.412;2024-01-16T14:37:49;3.03;;;1.60;;
7033;SDS011;3558;53.176;10.412;2024-01-16T14:40:15;3.30;;;1.70;;
7033;SDS011;3558;53.176;10.412;2024-01-16T14:42:45;3.50;;;1.65;;
7033;SDS011;3558;53.176;10.412;2024-01-16T14:45:13;3.28;;;1.80;;
7033;SDS011;3558;53.176;10.412;2024-01-16T14:47:38;4.30;;;1.95;;
7033;SDS011;3558;53.176;10.412;2024-01-16T14:50:04;4.27;;;1.90;;
7033;SDS011;3558;53.176;10.412;2024-01-16T14:52:31;5.82;;;2.25;;
7033;SDS011;3558;53.176;10.412;2024-01-16T14:55:01;4.72;;;2.38;;
7033;SDS011;3558;53.176;10.412;2024-01-16T14:57:27;3.75;;;2.15;;
7033;SDS011;3558;53.176;10.412;2024-01-16T14:59:55;3.28;;;2.30;;
7033;SDS011;3558;53.176;10.412;2024-01-16T15:02:21;4.37;;;2.50;;
7033;SDS011;3558;53.176;10.412;2024-01-16T15:04:47;4.20;;;2.17;;
7033;SDS011;3558;53.176;10.412;2024-01-16T15:07:13;4.63;;;2.30;;
7033;SDS011;3558;53.176;10.412;2024-01-16T15:09:39;5.57;;;2.30;;
7033;SDS011;3558;53.176;10.412;2024-01-16T15:12:05;4.53;;;2.42;;
7033;SDS011;3558;53.176;10.412;2024-01-16T15:14:34;3.10;;;2.15;;
7033;SDS011;3558;53.176;10.412;2024-01-16T15:17:00;3.70;;;2.30;;
7033;SDS011;3558;53.176;10.412;2024-01-16T15:19:26;3.95;;;2.20;;
7033;SDS011;3558;53.176;10.412;2024-01-16T15:21:52;4.75;;;2.30;;
7033;SDS011;3558;53.176;10.412;2024-01-16T15:24:18;4.38;;;2.50;;
7033;SDS011;3558;53.176;10.412;2024-01-16T15:26:54;4.00;;;2.17;;
7033;SDS011;3558;53.176;10.412;2024-01-16T15:29:21;4.85;;;2.13;;
7033;SDS011;3558;53.176;10.412;2024-01-16T15:31:47;3.20;;;2.08;;
7033;SDS011;3558;53.176;10.412;2024-01-16T15:34:13;5.13;;;2.10;;
7033;SDS011;3558;53.176;10.412;2024-01-16T15:36:39;3.70;;;2.25;;
7033;SDS011;3558;53.176;10.412;2024-01-16T15:39:04;3.70;;;2.00;;
7033;SDS011;3558;53.176;10.412;2024-01-16T15:41:30;3.17;;;1.90;;
7033;SDS011;3558;53.176;10.412;2024-01-16T15:43:57;3.08;;;1.90;;
7033;SDS011;3558;53.176;10.412;2024-01-16T15:46:23;3.53;;;2.03;;
7033;SDS011;3558;53.176;10.412;2024-01-16T15:48:48;4.30;;;1.95;;
7033;SDS011;3558;53.176;10.412;2024-01-16T15:51:15;3.85;;;2.20;;
7033;SDS011;3558;53.176;10.412;2024-01-16T15:53:41;2.97;;;2.10;;
7033;SDS011;3558;53.176;10.412;2024-01-16T15:56:07;3.67;;;2.13;;
7033;SDS011;3558;53.176;10.412;2024-01-16T15:58:32;3.47;;;2.10;;
7033;SDS011;3558;53.176;10.412;2024-01-16T16:00:58;3.47;;;1.95;;
7033;SDS011;3558;53.176;10.412;2024-01-16T16:03:24;3.15;;;2.00;;
7033;SDS011;3558;53.176;10.412;2024-01-16T16:05:50;3.55;;;2.03;;
7033;SDS011;3558;53.176;10.412;2024-01-16T16:08:16;3.20;;;2.10;;
7033;SDS011;3558;53.176;10.412;2024-01-16T16:10:41;3.00;;;1.97;;
7033;SDS011;3558;53.176;10.412;2024-01-16T16:13:07;3.75;;;2.30;;
7033;SDS011;3558;53.176;10.412;2024-01-16T16:15:34;3.63;;;2.10;;
7033;SDS011;3558;53.176;10.412;2024-01-16T16:18:00;3.47;;;2.42;;
7033;SDS011;3558;53.176;10.412;2024-01-16T16:20:26;3.05;;;2.35;;
7033;SDS011;3558;53.176;10.412;2024-01-16T16:22:51;2.92;;;2.15;;
7033;SDS011;3558;53.176;10.412;2024-01-16T16:25:18;3.20;;;2.03;;
7033;SDS011;3558;53.176;10.412;2024-01-16T16:27:44;3.63;;;2.63;;
7033;SDS011;3558;53.176;10.412;2024-01-16T16:30:09;3.08;;;2.38;;
7033;SDS011;3558;53.176;10.412;2024-01-16T16:32:38;3.63;;;2.50;;
7033;SDS011;3558;53.176;10.412;2024-01-16T16:35:04;3.20;;;2.40;;
7033;SDS011;3558;53.176;10.412;2024-01-16T16:37:30;3.83;;;2.70;;
7033;SDS011;3558;53.176;10.412;2024-01-16T16:39:55;4.03;;;2.67;;
7033;SDS011;3558;53.176;10.412;2024-01-16T16:42:21;5.17;;;3.20;;
7033;SDS011;3558;53.176;10.412;2024-01-16T16:44:46;5.67;;;2.90;;
7033;SDS011;3558;53.176;10.412;2024-01-16T16:47:12;4.50;;;3.10;;
7033;SDS011;3558;53.176;10.412;2024-01-16T16:49:37;4.80;;;3.10;;
7033;SDS011;3558;53.176;10.412;2024-01-16T16:52:03;5.97;;;3.13;;
7033;SDS011;3558;53.176;10.412;2024-01-16T16:54:29;4.75;;;3.42;;
7033;SDS011;3558;53.176;10.412;2024-01-16T16:56:55;4.03;;;3.00;;
7033;SDS011;3558;53.176;10.412;2024-01-16T16:59:21;3.47;;;3.15;;
7033;SDS011;3558;53.176;10.412;2024-01-16T17:01:47;4.07;;;2.90;;
7033;SDS011;3558;53.176;10.412;2024-01-16T17:04:13;3.93;;;3.03;;
7033;SDS011;3558;53.176;10.412;2024-01-16T17:06:38;5.00;;;3.30;;
7033;SDS011;3558;53.176;10.412;2024-01-16T17:09:04;6.07;;;3.97;;
7033;SDS011;3558;53.176;10.412;2024-01-16T17:11:36;5.53;;;3.72;;
7033;SDS011;3558;53.176;10.412;2024-01-16T17:14:04;4.43;;;3.40;;
7033;SDS011;3558;53.176;10.412;2024-01-16T17:16:30;5.47;;;3.30;;
7033;SDS011;3558;53.176;10.412;2024-01-16T17:18:56;5.15;;;3.15;;
7033;SDS011;3558;53.176;10.412;2024-01-16T17:21:22;5.13;;;3.45;;
7033;SDS011;3558;53.176;10.412;2024-01-16T17:23:47;3.97;;;3.30;;
7033;SDS011;3558;53.176;10.412;2024-01-16T17:26:13;3.92;;;3.22;;
7033;SDS011;3558;53.176;10.412;2024-01-16T17:28:39;3.85;;;3.22;;
7033;SDS011;3558;53.176;10.412;2024-01-16T17:31:05;5.50;;;3.37;;
7033;SDS011;3558;53.176;10.412;2024-01-16T17:33:32;3.90;;;3.50;;
7033;SDS011;3558;53.176;10.412;2024-01-16T17:35:58;5.25;;;3.35;;
7033;SDS011;3558;53.176;10.412;2024-01-16T17:38:30;5.03;;;3.33;;
7033;SDS011;3558;53.176;10.412;2024-01-16T17:40:57;4.33;;;3.50;;
7033;SDS011;3558;53.176;10.412;2024-01-16T17:43:24;6.22;;;3.70;;
7033;SDS011;3558;53.176;10.412;2024-01-16T17:45:49;4.57;;;3.50;;
7033;SDS011;3558;53.176;10.412;2024-01-16T17:48:15;4.47;;;3.70;;
7033;SDS011;3558;53.176;10.412;2024-01-16T17:50:43;5.07;;;3.50;;
7033;SDS011;3558;53.176;10.412;2024-01-16T17:53:11;4.72;;;3.75;;
7033;SDS011;3558;53.176;10.412;2024-01-16T17:55:36;4.97;;;3.60;;
7033;SDS011;3558;53.176;10.412;2024-01-16T17:58:02;4.85;;;3.80;;
7033;SDS011;3558;53.176;10.412;2024-01-16T18:00:31;6.22;;;3.83;;
7033;SDS011;3558;53.176;10.412;2024-01-16T18:02:57;5.50;;;3.80;;
7033;SDS011;3558;53.176;10.412;2024-01-16T18:05:23;5.45;;;3.88;;
7033;SDS011;3558;53.176;10.412;2024-01-16T18:07:52;4.40;;;3.72;;
7033;SDS011;3558;53.176;10.412;2024-01-16T18:10:18;5.05;;;3.60;;
7033;SDS011;3558;53.176;10.412;2024-01-16T18:12:44;5.75;;;4.50;;
7033;SDS011;3558;53.176;10.412;2024-01-16T18:15:10;5.53;;;4.10;;
7033;SDS011;3558;53.176;10.412;2024-01-16T18:17:40;6.55;;;4.63;;
7033;SDS011;3558;53.176;10.412;2024-01-16T18:20:15;6.82;;;4.63;;
7033;SDS011;3558;53.176;10.412;2024-01-16T18:22:44;6.22;;;4.80;;
7033;SDS011;3558;53.176;10.412;2024-01-16T18:25:11;6.03;;;4.90;;
7033;SDS011;3558;53.176;10.412;2024-01-16T18:27:39;7.35;;;4.95;;
7033;SDS011;3558;53.176;10.412;2024-01-16T18:30:05;6.63;;;4.20;;
7033;SDS011;3558;53.176;10.412;2024-01-16T18:32:31;7.22;;;4.85;;
7033;SDS011;3558;53.176;10.412;2024-01-16T18:34:57;6.72;;;5.22;;
7033;SDS011;3558;53.176;10.412;2024-01-16T18:37:23;7.50;;;4.80;;
7033;SDS011;3558;53.176;10.412;2024-01-16T18:39:49;6.50;;;5.37;;
7033;SDS011;3558;53.176;10.412;2024-01-16T18:42:15;8.02;;;5.95;;
7033;SDS011;3558;53.176;10.412;2024-01-16T18:44:41;7.35;;;5.20;;
7033;SDS011;3558;53.176;10.412;2024-01-16T18:47:06;7.38;;;5.30;;
7033;SDS011;3558;53.176;10.412;2024-01-16T18:49:32;7.63;;;5.15;;
7033;SDS011;3558;53.176;10.412;2024-01-16T18:51:58;7.40;;;5.18;;